createdAt,value
2023-03-06T00:01:28.455Z,5.10
2023-03-06T00:06:33.936Z,4.80
2023-03-06T00:11:37.341Z,5.70
2023-03-06T00:16:40.528Z,4.77
2023-03-06T00:21:44.937Z,8.57
2023-03-06T00:26:48.020Z,6.17
2023-03-06T00:31:51.391Z,6.03
2023-03-06T00:36:56.056Z,5.07
2023-03-06T00:41:59.193Z,5.77
2023-03-06T00:47:02.572Z,5.73
2023-03-06T00:52:07.582Z,6.37
2023-03-06T00:57:11.223Z,7.60
2023-03-06T01:02:14.729Z,6.17
2023-03-06T01:07:19.200Z,8.13
2023-03-06T01:12:23.607Z,6.87
2023-03-06T01:17:26.929Z,6.40
2023-03-06T01:22:31.446Z,8.23
2023-03-06T01:27:34.732Z,7.57
2023-03-06T01:32:38.101Z,7.27
2023-03-06T01:37:43.020Z,6.30
2023-03-06T01:42:46.932Z,7.73
2023-03-06T01:47:50.285Z,9.53
2023-03-06T01:52:58.885Z,8.30
2023-03-06T01:58:07.429Z,7.87
2023-03-06T02:03:15.235Z,7.17
2023-03-06T02:08:21.993Z,6.73
2023-03-06T02:13:25.318Z,9.37
2023-03-06T02:18:29.416Z,8.03
2023-03-06T02:23:43.439Z,8.43
2023-03-06T02:28:48.391Z,7.50
2023-03-06T02:34:06.330Z,7.40
2023-03-06T02:39:11.233Z,9.57
2023-03-06T02:44:15.841Z,8.67
2023-03-06T02:49:18.986Z,7.43
2023-03-06T02:54:22.415Z,5.47
2023-03-06T02:59:27.070Z,6.33
2023-03-06T03:04:30.576Z,6.53
2023-03-06T03:09:37.057Z,8.53
2023-03-06T03:14:42.355Z,7.03
2023-03-06T03:19:45.881Z,8.80
2023-03-06T03:24:49.507Z,9.53
2023-03-06T03:29:54.163Z,8.80
2023-03-06T03:34:57.878Z,10.53
2023-03-06T03:40:01.562Z,9.87
2023-03-06T03:45:07.190Z,10.07
2023-03-06T03:50:12.203Z,10.37
2023-03-06T03:55:15.394Z,8.77
2023-03-06T04:00:20.784Z,11.17
2023-03-06T04:05:24.324Z,11.33
2023-03-06T04:10:27.502Z,12.30
2023-03-06T04:15:32.159Z,13.00
2023-03-06T04:20:35.494Z,9.93
2023-03-06T04:25:39.186Z,10.87
2023-03-06T04:30:43.789Z,10.93
2023-03-06T04:35:47.077Z,11.23
2023-03-06T04:40:50.758Z,9.83
2023-03-06T04:45:55.500Z,9.23
2023-03-06T04:50:58.992Z,11.43
2023-03-06T04:56:02.267Z,10.67
2023-03-06T05:01:07.420Z,12.83
2023-03-06T05:06:10.691Z,9.63
2023-03-06T05:11:13.933Z,9.33
2023-03-06T05:16:18.778Z,10.93
2023-03-06T05:21:21.986Z,12.07
2023-03-06T05:26:25.096Z,11.93
2023-03-06T05:31:29.904Z,10.03
2023-03-06T05:36:33.346Z,11.40
2023-03-06T05:41:36.840Z,10.53
2023-03-06T05:46:41.635Z,9.40
2023-03-06T05:51:44.943Z,10.23
2023-03-06T05:56:48.196Z,9.67
2023-03-06T06:01:52.799Z,8.97
2023-03-06T06:06:58.597Z,10.27
2023-03-06T06:12:04.406Z,8.50
2023-03-06T06:17:11.368Z,9.10
2023-03-06T06:22:15.030Z,9.80
2023-03-06T06:27:18.567Z,11.07
2023-03-06T06:32:28.864Z,12.07
2023-03-06T06:37:32.277Z,10.80
2023-03-06T06:42:39.964Z,14.27
2023-03-06T06:47:46.252Z,10.80
2023-03-06T06:52:49.589Z,10.80
2023-03-06T06:57:52.841Z,12.00
2023-03-06T07:02:59.717Z,9.13
2023-03-06T07:08:03.145Z,11.00
2023-03-06T07:13:06.428Z,11.57
2023-03-06T07:18:11.184Z,12.33
2023-03-06T07:23:14.565Z,12.80
2023-03-06T07:28:19.374Z,11.50
2023-03-06T07:33:24.263Z,10.87
2023-03-06T07:38:27.568Z,11.93
2023-03-06T07:43:30.826Z,14.13
2023-03-06T07:48:35.844Z,14.97
2023-03-06T07:53:39.179Z,14.83
2023-03-06T07:58:44.783Z,14.20
2023-03-06T08:03:50.263Z,13.07
2023-03-06T08:08:55.392Z,17.53
2023-03-06T08:13:59.587Z,15.10
2023-03-06T08:19:04.158Z,14.77
2023-03-06T08:24:08.535Z,14.93
2023-03-06T08:29:12.921Z,12.67
2023-03-06T08:34:19.259Z,12.53
2023-03-06T08:39:23.721Z,14.83
2023-03-06T08:44:26.931Z,14.57
2023-03-06T08:49:31.770Z,11.70
2023-03-06T08:54:36.161Z,13.50
2023-03-06T08:59:39.635Z,11.93
2023-03-06T09:04:44.373Z,12.00
2023-03-06T09:09:47.909Z,12.43
2023-03-06T09:14:51.488Z,13.97
2023-03-06T09:19:56.152Z,12.87
2023-03-06T09:25:02.960Z,13.13
2023-03-06T09:30:09.286Z,15.43
2023-03-06T09:35:15.882Z,14.20
2023-03-06T09:40:26.413Z,13.93
2023-03-06T09:45:38.309Z,12.70
2023-03-06T09:50:47.699Z,13.80
2023-03-06T09:55:58.301Z,11.03
2023-03-06T10:01:05.784Z,13.50
2023-03-06T10:06:17.257Z,13.03
2023-03-06T10:11:26.271Z,14.60
2023-03-06T10:16:31.863Z,14.23
2023-03-06T10:21:44.816Z,15.47
2023-03-06T10:26:53.896Z,19.20
2023-03-06T10:32:05.592Z,17.40
2023-03-06T10:37:20.357Z,18.47
2023-03-06T10:42:24.586Z,19.73
2023-03-06T10:47:35.340Z,19.33
2023-03-06T10:52:41.283Z,18.20
2023-03-06T10:57:44.379Z,21.03
2023-03-06T11:02:47.561Z,16.20
2023-03-06T11:07:57.529Z,17.20
2023-03-06T11:13:02.890Z,16.33
2023-03-06T11:18:28.924Z,16.83
2023-03-06T11:23:40.062Z,15.67
2023-03-06T11:28:47.444Z,17.47
2023-03-06T11:33:56.009Z,17.10
2023-03-06T11:39:01.672Z,16.17
2023-03-06T11:44:15.636Z,16.73
2023-03-06T11:49:24.042Z,15.90
2023-03-06T11:54:28.674Z,15.97
2023-03-06T11:59:52.617Z,16.33
2023-03-06T12:05:10.996Z,16.93
2023-03-06T12:10:20.602Z,15.93
2023-03-06T12:15:41.279Z,13.77
2023-03-06T12:20:56.957Z,14.93
2023-03-06T12:26:10.821Z,11.63
2023-03-06T12:31:46.392Z,14.37
2023-03-06T12:37:02.438Z,13.13
2023-03-06T12:42:32.766Z,11.63
2023-03-06T12:47:43.170Z,10.30
2023-03-06T12:52:49.309Z,7.83
2023-03-06T12:57:54.632Z,7.23
2023-03-06T13:03:13.014Z,6.07
2023-03-06T13:08:32.980Z,6.33
2023-03-06T13:13:45.335Z,6.03
2023-03-06T13:18:52.820Z,7.93
2023-03-06T13:24:06.319Z,8.20
2023-03-06T13:29:42.639Z,8.50
2023-03-06T13:34:48.870Z,9.97
2023-03-06T13:40:16.640Z,10.53
2023-03-06T13:45:26.088Z,11.77
2023-03-06T13:50:38.107Z,11.50
2023-03-06T13:55:51.998Z,12.27
2023-03-06T14:01:35.163Z,13.93
2023-03-06T14:07:06.521Z,10.67
2023-03-06T14:12:20.368Z,12.67
2023-03-06T14:17:29.411Z,10.50
2023-03-06T14:22:33.929Z,12.70
2023-03-06T14:27:45.764Z,12.63
2023-03-06T14:32:51.499Z,12.17
2023-03-06T14:37:59.799Z,10.77
2023-03-06T14:43:21.670Z,10.77
2023-03-06T14:48:27.065Z,12.57
2023-03-06T14:53:33.980Z,11.17
2023-03-06T14:58:45.536Z,13.00
2023-03-06T15:03:54.430Z,15.03
2023-03-06T15:09:04.753Z,13.07
2023-03-06T15:14:20.048Z,12.40
2023-03-06T15:19:24.192Z,16.50
2023-03-06T15:24:35.318Z,14.90
2023-03-06T15:29:40.213Z,15.30
2023-03-06T15:34:43.523Z,13.57
2023-03-06T15:40:08.209Z,16.27
2023-03-06T15:45:17.157Z,14.23
2023-03-06T15:50:21.992Z,10.90
2023-03-06T15:55:27.650Z,9.17
2023-03-06T16:00:34.243Z,10.43
2023-03-06T16:05:37.518Z,9.73
2023-03-06T16:10:43.806Z,8.77
2023-03-06T16:15:49.372Z,8.80
2023-03-06T16:20:52.645Z,9.90
2023-03-06T16:25:57.509Z,9.53
2023-03-06T16:31:01.086Z,7.93
2023-03-06T16:36:13.483Z,8.23
2023-03-06T16:41:19.169Z,8.93
2023-03-06T16:46:25.221Z,10.40
2023-03-06T16:51:28.458Z,11.70
2023-03-06T16:56:33.038Z,8.53
2023-03-06T17:01:36.348Z,8.60
2023-03-06T17:06:41.870Z,9.70
2023-03-06T17:11:46.985Z,10.40
2023-03-06T17:16:50.543Z,20.00
2023-03-06T17:21:53.942Z,14.10
2023-03-06T17:26:58.689Z,13.13
2023-03-06T17:32:02.157Z,12.50
2023-03-06T17:37:05.566Z,12.23
2023-03-06T17:42:10.349Z,10.77
2023-03-06T17:47:13.860Z,11.13
2023-03-06T17:52:17.046Z,14.60
2023-03-06T17:57:22.189Z,17.20
2023-03-06T18:02:25.806Z,12.50
2023-03-06T18:07:29.136Z,9.37
2023-03-06T18:12:33.946Z,9.13
2023-03-06T18:17:37.321Z,11.33
2023-03-06T18:22:40.631Z,10.13
2023-03-06T18:27:45.555Z,10.80
2023-03-06T18:32:48.763Z,10.90
2023-03-06T18:37:55.780Z,16.30
2023-03-06T18:43:00.814Z,10.97
2023-03-06T18:48:05.013Z,9.60
2023-03-06T18:53:08.611Z,10.60
2023-03-06T18:58:14.249Z,9.63
2023-03-06T19:03:21.070Z,12.00
2023-03-06T19:08:25.002Z,12.17
2023-03-06T19:13:29.913Z,11.80
2023-03-06T19:18:33.263Z,10.87
2023-03-06T19:23:36.484Z,11.20
2023-03-06T19:28:43.381Z,11.70
2023-03-06T19:33:48.605Z,10.63
2023-03-06T19:38:55.189Z,11.97
2023-03-06T19:44:02.498Z,11.17
2023-03-06T19:49:12.017Z,9.67
2023-03-06T19:54:16.951Z,11.03
2023-03-06T19:59:21.563Z,11.03
2023-03-06T20:04:26.340Z,10.77
2023-03-06T20:09:32.374Z,10.17
2023-03-06T20:14:37.685Z,11.53
2023-03-06T20:19:40.925Z,10.57
2023-03-06T20:24:44.419Z,14.80
2023-03-06T20:29:49.684Z,14.30
2023-03-06T20:34:52.765Z,13.30
2023-03-06T20:39:56.256Z,12.60
2023-03-06T20:45:00.738Z,15.43
2023-03-06T20:50:04.202Z,14.90
2023-03-06T20:55:08.341Z,18.23
2023-03-06T21:00:14.185Z,19.00
2023-03-06T21:05:17.882Z,16.53
2023-03-06T21:10:21.496Z,18.67
2023-03-06T21:15:30.109Z,18.27
2023-03-06T21:20:34.559Z,17.70
2023-03-06T21:25:38.159Z,15.83
2023-03-06T21:30:43.582Z,18.47
2023-03-06T21:35:47.077Z,18.53
2023-03-06T21:40:50.340Z,17.57
2023-03-06T21:45:58.399Z,17.20
2023-03-06T21:51:09.987Z,16.03
2023-03-06T21:56:14.903Z,21.00
2023-03-06T22:01:21.939Z,17.43
2023-03-06T22:06:27.438Z,18.97
2023-03-06T22:11:31.481Z,16.57
2023-03-06T22:16:36.675Z,17.57
2023-03-06T22:21:40.053Z,18.97
2023-03-06T22:26:43.270Z,18.50
2023-03-06T22:31:47.920Z,18.17
2023-03-06T22:36:51.182Z,20.43
2023-03-06T22:41:56.321Z,19.50
2023-03-06T22:47:01.004Z,18.73
2023-03-06T22:52:04.302Z,16.77
2023-03-06T22:57:07.531Z,19.70
2023-03-06T23:02:12.190Z,20.97
2023-03-06T23:07:15.489Z,20.23
2023-03-06T23:12:18.693Z,20.47
2023-03-06T23:17:23.412Z,20.50
2023-03-06T23:22:27.900Z,18.80
2023-03-06T23:27:31.034Z,20.27
2023-03-06T23:32:36.077Z,18.97
2023-03-06T23:37:39.270Z,18.77
2023-03-06T23:42:42.583Z,19.60
2023-03-06T23:48:07.096Z,21.00
2023-03-06T23:53:28.577Z,15.87
2023-03-06T23:58:50.541Z,17.30
